createdAt,value
2018-07-14T04:00:57.179Z,12.27
2018-07-14T04:03:25.896Z,13.30
2018-07-14T04:05:54.596Z,12.97
2018-07-14T04:08:23.291Z,13.60
2018-07-14T04:10:51.989Z,12.80
2018-07-14T04:13:20.692Z,12.87
2018-07-14T04:15:49.707Z,13.40
2018-07-14T04:18:18.398Z,12.63
2018-07-14T04:20:47.108Z,12.47
2018-07-14T04:23:15.792Z,12.57
2018-07-14T04:25:44.478Z,11.87
2018-07-14T04:28:13.150Z,11.77
2018-07-14T04:30:41.822Z,12.90
2018-07-14T04:33:10.534Z,12.30
2018-07-14T04:35:39.236Z,12.57
2018-07-14T04:38:07.907Z,13.37
2018-07-14T04:40:36.609Z,12.27
2018-07-14T04:43:05.292Z,13.13
2018-07-14T04:45:33.951Z,12.20
2018-07-14T04:48:02.655Z,12.63
2018-07-14T04:50:31.339Z,12.43
2018-07-14T04:53:00.037Z,11.80
2018-07-14T04:55:28.721Z,13.63
2018-07-14T04:57:57.424Z,12.70
2018-07-14T05:00:26.115Z,12.60
2018-07-14T05:33:14.626Z,13.10
2018-07-14T05:35:43.350Z,12.00
2018-07-14T05:38:12.024Z,11.80
2018-07-14T05:40:40.702Z,11.93
2018-07-14T05:43:09.417Z,11.50
2018-07-14T05:45:38.098Z,10.60
2018-07-14T05:48:06.844Z,10.73
2018-07-14T05:50:35.506Z,9.67
2018-07-14T05:53:04.184Z,10.37
2018-07-14T05:55:32.896Z,10.60
2018-07-14T05:58:01.572Z,10.10
2018-07-14T06:00:30.260Z,10.10
2018-07-14T06:02:58.957Z,10.57
2018-07-14T06:05:27.629Z,9.93
2018-07-14T06:07:56.337Z,10.80
2018-07-14T06:10:25.027Z,11.23
2018-07-14T06:12:53.711Z,10.37
2018-07-14T06:15:22.417Z,11.00
2018-07-14T06:17:51.157Z,10.90
2018-07-14T06:20:19.852Z,10.70
2018-07-14T06:22:48.582Z,11.13
2018-07-14T06:25:17.256Z,12.13
2018-07-14T06:27:45.968Z,10.53
2018-07-14T06:30:14.654Z,11.10
2018-07-14T06:32:43.346Z,11.13
2018-07-14T06:35:12.055Z,10.50
2018-07-14T06:37:40.750Z,10.73
2018-07-14T06:40:09.442Z,9.73
2018-07-14T06:42:38.143Z,10.33
2018-07-14T06:45:06.884Z,9.70
2018-07-14T06:47:35.853Z,8.83
2018-07-14T06:50:04.546Z,8.50
2018-07-14T06:52:33.241Z,8.53
2018-07-14T06:55:01.910Z,8.87
2018-07-14T06:57:30.964Z,9.30
2018-07-14T06:59:59.762Z,8.53
2018-07-14T07:02:28.735Z,7.77
2018-07-14T07:04:57.819Z,8.17
2018-07-14T07:07:26.892Z,8.70
2018-07-14T07:09:55.959Z,8.33
2018-07-14T07:12:24.776Z,8.97
2018-07-14T07:14:53.750Z,8.67
2018-07-14T07:17:22.819Z,8.77
2018-07-14T07:19:51.988Z,8.33
2018-07-14T07:22:21.063Z,8.20
2018-07-14T07:24:50.143Z,8.00
2018-07-14T07:27:19.241Z,8.80
2018-07-14T07:29:48.334Z,8.47
2018-07-14T08:18:47.259Z,6.67
2018-07-14T08:21:16.342Z,7.23
2018-07-14T08:23:45.742Z,8.07
2018-07-14T08:26:14.819Z,8.90
2018-07-14T08:28:43.916Z,9.77
2018-07-14T08:31:13.011Z,9.40
2018-07-14T08:33:42.149Z,8.53
2018-07-14T08:36:11.190Z,9.83
2018-07-14T08:38:40.268Z,8.43
2018-07-14T08:41:09.667Z,7.47
2018-07-14T08:43:39.071Z,8.23
2018-07-14T08:46:08.198Z,7.37
2018-07-14T08:48:37.313Z,6.60
2018-07-14T08:51:06.681Z,6.80
2018-07-14T08:53:35.754Z,7.10
2018-07-14T08:56:05.017Z,7.00
2018-07-14T08:58:34.277Z,7.43
2018-07-14T09:01:03.395Z,7.33
2018-07-14T09:03:32.473Z,7.63
2018-07-14T09:06:01.607Z,6.20
2018-07-14T09:08:30.969Z,6.13
2018-07-14T09:11:01.228Z,5.43
2018-07-14T09:13:30.048Z,5.97
2018-07-14T09:15:58.727Z,6.43
2018-07-14T09:18:27.413Z,7.07
2018-07-14T09:20:56.118Z,7.30
2018-07-14T09:23:24.823Z,7.10
2018-07-14T09:25:53.499Z,7.77
2018-07-14T09:28:22.221Z,7.03
2018-07-14T09:30:50.923Z,8.73
2018-07-14T09:33:19.632Z,9.57
2018-07-14T09:35:48.332Z,7.20
2018-07-14T09:38:17.129Z,6.90
2018-07-14T09:40:45.851Z,7.30
2018-07-14T09:43:14.586Z,8.07
2018-07-14T09:45:43.316Z,8.80
2018-07-14T09:48:12.002Z,8.10
2018-07-14T09:50:40.867Z,7.00
2018-07-14T09:53:09.580Z,7.27
2018-07-14T09:55:38.238Z,7.60
2018-07-14T09:58:06.910Z,8.03
2018-07-14T10:00:35.629Z,7.77
2018-07-14T10:03:04.986Z,6.23
2018-07-14T10:05:33.686Z,5.37
2018-07-14T10:08:02.368Z,4.77
2018-07-14T10:10:31.048Z,5.67
2018-07-14T10:13:00.022Z,6.00
2018-07-14T10:15:29.073Z,5.13
2018-07-14T10:17:58.132Z,4.70
2018-07-14T10:20:27.234Z,4.37
2018-07-14T10:22:56.316Z,4.90
2018-07-14T10:25:25.456Z,5.20
2018-07-14T10:27:54.500Z,5.07
2018-07-14T10:30:23.599Z,5.03
2018-07-14T10:32:52.708Z,5.50
2018-07-14T10:35:21.786Z,5.00
2018-07-14T10:37:50.888Z,5.63
2018-07-14T10:40:19.976Z,5.77
2018-07-14T10:42:49.055Z,5.43
2018-07-14T10:45:18.239Z,5.83
2018-07-14T10:47:47.372Z,5.00
2018-07-14T10:50:16.471Z,4.87
2018-07-14T10:52:45.599Z,5.40
2018-07-14T10:55:14.705Z,5.97
2018-07-14T10:57:43.877Z,5.37
2018-07-14T11:00:13.008Z,4.80
2018-07-14T11:02:42.095Z,4.70
2018-07-14T11:05:11.222Z,4.70
2018-07-14T11:07:40.025Z,5.50
2018-07-14T11:10:09.042Z,5.80
2018-07-14T11:12:38.181Z,6.23
2018-07-14T11:15:07.296Z,6.57
2018-07-14T11:17:36.387Z,5.07
2018-07-14T11:48:35.988Z,4.53
2018-07-14T11:51:05.090Z,5.20
2018-07-14T11:53:34.203Z,5.93
2018-07-14T11:56:03.292Z,6.13
2018-07-14T11:58:32.413Z,5.37
2018-07-14T12:01:01.497Z,5.40
2018-07-14T12:03:30.567Z,5.27
2018-07-14T12:05:59.700Z,4.53
2018-07-14T12:08:28.803Z,4.27
2018-07-14T12:10:57.907Z,4.40
2018-07-14T12:13:26.727Z,5.03
2018-07-14T12:15:55.691Z,4.77
2018-07-14T12:18:24.797Z,5.03
2018-07-14T12:20:53.890Z,4.77
2018-07-14T12:23:22.996Z,4.20
2018-07-14T12:25:52.091Z,4.80
2018-07-14T12:28:21.264Z,3.90
2018-07-14T12:30:50.388Z,4.63
2018-07-14T12:33:19.506Z,4.30
2018-07-14T12:35:48.587Z,4.83
2018-07-14T12:38:17.749Z,4.60
2018-07-14T12:40:46.866Z,5.23
2018-07-14T12:43:16.033Z,4.53
2018-07-14T12:45:45.125Z,5.03
2018-07-14T12:48:14.277Z,5.20
2018-07-14T12:50:43.360Z,4.67
2018-07-14T12:53:12.464Z,4.70
2018-07-14T12:55:41.556Z,4.67
2018-07-14T12:58:10.693Z,5.07
2018-07-14T13:00:39.782Z,4.23
2018-07-14T13:03:08.855Z,5.20
2018-07-14T13:05:37.933Z,4.80
2018-07-14T13:08:07.001Z,4.60
2018-07-14T13:10:36.121Z,4.00
2018-07-14T13:13:05.587Z,4.53
2018-07-14T13:15:34.662Z,4.37
2018-07-14T13:18:03.836Z,4.17
2018-07-14T13:20:32.889Z,3.57
2018-07-14T13:23:01.952Z,4.00
2018-07-14T13:25:31.125Z,4.73
2018-07-14T13:28:00.172Z,4.57
2018-07-14T13:30:29.244Z,3.80
2018-07-14T13:32:58.359Z,4.67
2018-07-14T13:35:27.447Z,4.60
2018-07-14T13:37:56.583Z,4.57
2018-07-14T13:40:25.764Z,4.20
2018-07-14T13:42:54.911Z,4.77
2018-07-14T13:45:24.051Z,6.40
2018-07-14T13:47:53.124Z,5.30
2018-07-14T13:50:22.206Z,4.03
2018-07-14T13:52:51.337Z,3.80
2018-07-14T13:55:20.527Z,3.20
2018-07-14T13:57:49.607Z,3.07
2018-07-14T14:00:18.680Z,3.63
2018-07-14T14:02:47.814Z,3.37
2018-07-14T14:05:16.893Z,3.43
2018-07-14T14:07:45.942Z,4.47
2018-07-14T14:10:15.021Z,4.37
2018-07-14T14:12:44.079Z,4.40
2018-07-14T14:15:13.150Z,3.33
2018-07-14T14:17:42.216Z,4.10
2018-07-14T14:20:11.285Z,3.90
2018-07-14T14:22:40.385Z,3.20
2018-07-14T14:25:09.452Z,3.53
2018-07-14T14:27:38.535Z,3.30
2018-07-14T14:30:07.676Z,3.07
2018-07-14T14:32:36.775Z,2.77
2018-07-14T14:35:05.904Z,3.30
2018-07-14T14:37:35.066Z,3.53
2018-07-14T14:40:04.192Z,2.83
2018-07-14T14:42:33.288Z,3.27
2018-07-14T14:45:02.350Z,3.40
2018-07-14T14:47:31.480Z,4.40
2018-07-14T14:50:00.573Z,3.73
2018-07-14T14:52:29.648Z,3.00
2018-07-14T14:54:58.724Z,3.50
2018-07-14T14:57:27.837Z,4.20
2018-07-14T14:59:56.892Z,3.40
2018-07-14T15:02:25.984Z,3.87
2018-07-14T15:04:55.040Z,3.30
2018-07-14T15:07:23.887Z,3.07
2018-07-14T15:09:52.841Z,4.33
2018-07-14T15:12:21.911Z,4.00
2018-07-14T15:14:50.728Z,3.60
2018-07-14T15:17:19.771Z,3.50
2018-07-14T15:51:44.679Z,6.80
2018-07-14T15:54:13.760Z,4.23
2018-07-14T15:56:42.839Z,4.00
2018-07-14T15:59:11.924Z,3.43
2018-07-14T16:01:41.019Z,3.40
2018-07-14T16:04:10.103Z,3.30
2018-07-14T16:06:39.167Z,3.80
2018-07-14T16:09:08.505Z,3.37
2018-07-14T16:11:37.780Z,13.33
2018-07-14T16:14:07.187Z,3.80
2018-07-14T16:16:36.270Z,3.47
2018-07-14T16:19:05.415Z,3.20
2018-07-14T16:21:34.812Z,3.50
2018-07-14T16:24:03.714Z,3.37
2018-07-14T16:26:32.383Z,3.70
2018-07-14T16:29:01.039Z,3.67
2018-07-14T16:31:29.770Z,3.10
2018-07-14T16:33:58.749Z,3.40
2018-07-14T16:36:27.439Z,3.20
2018-07-14T16:38:56.267Z,3.40
2018-07-14T16:41:24.943Z,4.13
2018-07-14T16:43:53.607Z,5.57
2018-07-14T16:46:22.295Z,5.27
2018-07-14T16:48:50.966Z,4.37
2018-07-14T16:51:19.671Z,3.43
2018-07-14T16:53:48.377Z,18.37
2018-07-14T16:56:17.050Z,3.00
2018-07-14T16:58:45.789Z,32.73
2018-07-14T17:01:14.545Z,8.37
2018-07-14T17:03:43.266Z,4.17
2018-07-14T17:06:11.970Z,3.60
2018-07-14T17:08:40.679Z,25.83
2018-07-14T17:11:09.390Z,3.63
2018-07-14T17:13:38.062Z,2.23
2018-07-14T17:16:06.817Z,2.33
2018-07-14T17:18:35.519Z,3.80
2018-07-14T17:21:04.217Z,2.20
2018-07-14T17:23:32.943Z,1.97
2018-07-14T17:26:01.896Z,2.00
2018-07-14T17:28:31.499Z,4.90
2018-07-14T17:31:00.255Z,2.00
2018-07-14T17:33:28.938Z,2.33
2018-07-14T17:35:57.650Z,2.30
2018-07-14T17:38:26.339Z,1.90
2018-07-14T17:40:55.055Z,2.20
2018-07-14T17:43:23.711Z,2.00
2018-07-14T17:45:52.427Z,2.00
2018-07-14T17:48:21.178Z,1.60
2018-07-14T17:50:49.900Z,1.90
2018-07-14T17:53:18.590Z,3.17
2018-07-14T17:55:47.238Z,2.03
2018-07-14T17:58:15.912Z,2.07
2018-07-14T18:00:44.603Z,2.10
2018-07-14T18:03:13.312Z,1.97
2018-07-14T18:05:41.997Z,2.37
2018-07-14T18:08:10.663Z,2.30
2018-07-14T18:10:39.360Z,2.00
2018-07-14T18:13:08.036Z,2.10
2018-07-14T18:15:36.695Z,1.70
2018-07-14T18:18:05.424Z,1.90
2018-07-14T18:20:34.095Z,2.30
2018-07-14T18:23:02.777Z,2.67
2018-07-14T18:25:31.648Z,2.27
2018-07-14T18:28:00.353Z,2.50
2018-07-14T18:30:29.026Z,2.27
2018-07-14T18:32:57.696Z,2.20
2018-07-14T18:35:26.376Z,2.40
2018-07-14T18:37:55.085Z,1.87
2018-07-14T18:40:23.803Z,2.23
2018-07-14T18:42:54.560Z,2.57
2018-07-14T18:45:24.278Z,2.07
2018-07-14T18:47:54.607Z,2.00
2018-07-14T18:50:24.143Z,2.17
2018-07-14T18:52:52.843Z,2.27
2018-07-14T18:55:21.510Z,2.17
2018-07-14T18:57:50.198Z,2.20
2018-07-14T19:00:18.877Z,2.23
2018-07-14T19:02:47.643Z,2.20
2018-07-14T19:05:16.263Z,2.20
2018-07-14T19:07:44.950Z,2.30
2018-07-14T19:10:13.737Z,2.37
2018-07-14T19:12:42.413Z,2.33
2018-07-14T19:15:11.117Z,2.80
2018-07-14T19:17:39.799Z,2.60
2018-07-14T19:20:08.486Z,2.77
2018-07-14T19:22:37.160Z,2.93
2018-07-14T19:25:05.836Z,2.50
2018-07-14T19:27:34.832Z,3.20
2018-07-14T19:30:03.969Z,3.10
2018-07-14T19:32:33.069Z,2.77
2018-07-14T19:35:02.212Z,3.50
2018-07-14T19:37:31.332Z,3.00
2018-07-14T19:40:00.569Z,3.10
2018-07-14T19:42:29.667Z,3.40
2018-07-14T19:44:58.757Z,3.27
2018-07-14T19:47:27.900Z,3.17
2018-07-14T19:49:56.977Z,3.40
2018-07-14T19:52:26.104Z,3.00
2018-07-14T19:54:55.193Z,2.90
2018-07-14T19:57:24.252Z,3.13
2018-07-14T19:59:53.414Z,2.87
2018-07-14T20:02:22.487Z,3.27
2018-07-14T20:04:51.604Z,3.30
2018-07-14T20:07:20.680Z,3.47
2018-07-14T20:09:50.173Z,3.30
2018-07-14T20:12:19.308Z,3.80
2018-07-14T20:14:48.380Z,3.30
2018-07-14T20:17:17.562Z,3.67
2018-07-14T20:19:46.693Z,2.93
2018-07-14T20:22:15.733Z,3.17
2018-07-14T20:24:44.515Z,3.30
2018-07-14T20:27:13.461Z,3.10
2018-07-14T20:29:42.567Z,3.30
2018-07-14T20:32:11.660Z,3.00
2018-07-14T20:34:40.759Z,2.60
2018-07-14T20:37:09.886Z,2.63
2018-07-14T20:39:39.048Z,2.70
2018-07-14T20:42:08.177Z,2.37
2018-07-14T20:44:37.288Z,2.60
2018-07-14T20:47:06.396Z,2.67
2018-07-14T20:49:35.510Z,2.70
2018-07-14T20:52:04.598Z,2.90
2018-07-14T20:54:33.692Z,3.00
2018-07-14T20:57:02.930Z,2.80
2018-07-14T20:59:32.040Z,2.83
2018-07-14T21:02:01.192Z,2.73
2018-07-14T21:04:30.300Z,2.87
2018-07-14T21:06:59.439Z,2.80
2018-07-14T21:09:28.535Z,2.70
2018-07-14T21:11:57.620Z,3.00
2018-07-14T21:14:26.698Z,3.30
2018-07-14T21:16:55.791Z,2.43
2018-07-14T21:19:24.856Z,3.27
2018-07-14T21:21:53.923Z,2.93
2018-07-14T21:24:23.109Z,3.27
2018-07-14T21:26:52.373Z,3.50
2018-07-14T21:29:21.471Z,3.60
2018-07-14T21:31:50.654Z,3.37
2018-07-14T21:34:19.691Z,4.17
2018-07-14T21:36:48.772Z,4.30
2018-07-14T21:39:17.842Z,5.00
2018-07-14T21:41:46.912Z,4.53
2018-07-14T21:44:15.992Z,4.97
2018-07-14T21:46:45.068Z,5.37
2018-07-14T21:49:14.166Z,5.23
2018-07-14T21:51:43.267Z,5.30
2018-07-14T21:54:12.361Z,4.87
2018-07-14T21:56:41.423Z,4.77
2018-07-14T21:59:10.601Z,4.70
2018-07-14T22:01:44.932Z,4.60
2018-07-14T22:04:14.044Z,5.40
2018-07-14T22:06:43.115Z,5.40
2018-07-14T22:09:12.580Z,5.03
2018-07-14T22:11:41.652Z,5.53
2018-07-14T22:14:10.732Z,4.80
2018-07-14T22:16:39.810Z,4.83
2018-07-14T22:19:08.880Z,4.77
2018-07-14T22:21:37.972Z,5.17
2018-07-14T22:24:07.038Z,5.03
2018-07-14T22:26:36.129Z,5.00
2018-07-14T22:29:05.213Z,4.90
2018-07-14T22:31:34.309Z,4.60
2018-07-14T22:34:03.431Z,4.77
2018-07-14T22:36:32.537Z,4.27
2018-07-14T22:39:01.688Z,4.67
2018-07-14T22:41:30.763Z,4.60
2018-07-14T22:43:59.835Z,4.80
2018-07-14T22:46:28.916Z,4.50
2018-07-14T22:48:58.075Z,4.77
2018-07-14T22:51:27.152Z,4.90
2018-07-14T22:53:56.276Z,4.90
2018-07-14T22:56:25.342Z,4.30
2018-07-14T22:58:54.419Z,4.53
2018-07-14T23:01:23.507Z,5.17
2018-07-14T23:03:52.661Z,4.83
2018-07-14T23:06:21.735Z,5.57
2018-07-14T23:08:50.824Z,5.20
2018-07-14T23:11:19.899Z,5.63
2018-07-14T23:13:49.149Z,5.83
2018-07-14T23:16:18.251Z,5.27
2018-07-14T23:18:47.356Z,4.93
2018-07-14T23:21:16.476Z,5.40
2018-07-14T23:23:45.592Z,5.40
2018-07-14T23:26:14.660Z,5.13
2018-07-14T23:28:43.718Z,5.23
2018-07-14T23:31:12.780Z,5.80
2018-07-14T23:33:41.584Z,6.10
2018-07-14T23:36:10.513Z,5.40
2018-07-14T23:38:39.632Z,6.10
2018-07-14T23:41:08.735Z,6.07
2018-07-14T23:43:37.799Z,6.40
2018-07-14T23:46:06.885Z,5.40
2018-07-14T23:48:35.958Z,5.47
2018-07-14T23:51:05.093Z,6.50
2018-07-14T23:53:34.168Z,5.63
2018-07-14T23:56:03.254Z,5.70
2018-07-14T23:58:32.358Z,5.70
